createdAt,value
2022-10-22T00:01:53.195Z,5.77
2022-10-22T00:04:19.842Z,5.83
2022-10-22T00:06:46.478Z,7.07
2022-10-22T00:09:13.720Z,5.07
2022-10-22T00:11:41.031Z,5.83
2022-10-22T00:14:07.724Z,8.30
2022-10-22T00:16:34.274Z,4.93
2022-10-22T00:19:00.835Z,6.60
2022-10-22T00:21:29.219Z,6.80
2022-10-22T00:23:56.304Z,7.37
2022-10-22T00:26:23.031Z,5.77
2022-10-22T00:28:49.541Z,6.47
2022-10-22T00:31:21.952Z,5.17
2022-10-22T00:33:48.659Z,6.57
2022-10-22T00:36:15.952Z,5.60
2022-10-22T00:38:42.839Z,5.33
2022-10-22T00:41:09.365Z,11.80
2022-10-22T00:43:53.290Z,5.33
2022-10-22T00:46:19.876Z,4.80
2022-10-22T00:48:46.655Z,6.80
2022-10-22T00:51:13.871Z,4.87
2022-10-22T00:53:53.625Z,8.83
2022-10-22T00:56:20.813Z,3.93
2022-10-22T00:58:52.744Z,7.07
2022-10-22T01:01:23.007Z,5.90
2022-10-22T01:03:50.025Z,7.27
2022-10-22T01:06:22.578Z,4.97
2022-10-22T01:08:58.274Z,3.70
2022-10-22T01:11:24.874Z,6.07
2022-10-22T01:14:01.031Z,5.60
2022-10-22T01:16:32.762Z,9.70
2022-10-22T01:19:20.263Z,7.27
2022-10-22T01:21:48.927Z,7.13
2022-10-22T01:24:20.967Z,10.00
2022-10-22T01:27:02.809Z,5.40
2022-10-22T01:29:41.365Z,7.27
2022-10-22T01:32:11.610Z,7.47
2022-10-22T01:34:40.318Z,5.67
2022-10-22T01:37:07.475Z,7.53
2022-10-22T01:39:34.774Z,7.97
2022-10-22T01:42:01.355Z,6.60
2022-10-22T01:44:29.170Z,4.87
2022-10-22T01:47:14.633Z,6.13
2022-10-22T01:50:00.291Z,7.83
2022-10-22T01:52:33.597Z,10.53
2022-10-22T01:55:17.844Z,7.30
2022-10-22T01:57:48.915Z,6.87
2022-10-22T02:00:17.255Z,6.60
2022-10-22T02:02:52.940Z,5.27
2022-10-22T02:05:19.456Z,4.20
2022-10-22T02:07:49.285Z,6.23
2022-10-22T02:10:16.651Z,6.07
2022-10-22T02:12:44.879Z,7.97
2022-10-22T02:15:12.173Z,5.70
2022-10-22T02:17:39.621Z,7.97
2022-10-22T02:20:08.246Z,6.10
2022-10-22T02:22:37.210Z,10.93
2022-10-22T02:25:05.471Z,8.97
2022-10-22T02:27:43.877Z,8.43
2022-10-22T02:30:18.267Z,8.70
2022-10-22T02:32:57.785Z,7.23
2022-10-22T02:35:25.723Z,5.17
2022-10-22T02:37:52.854Z,9.43
2022-10-22T02:40:19.816Z,6.37
2022-10-22T02:42:47.412Z,8.70
2022-10-22T02:45:14.278Z,3.97
2022-10-22T02:47:41.574Z,5.53
2022-10-22T02:50:10.311Z,8.93
2022-10-22T02:52:37.441Z,8.17
2022-10-22T02:55:04.805Z,4.50
2022-10-22T02:57:31.335Z,4.83
2022-10-22T02:59:57.866Z,7.13
2022-10-22T03:02:24.392Z,5.97
2022-10-22T03:04:51.031Z,5.40
2022-10-22T03:07:17.568Z,9.20
2022-10-22T03:09:44.110Z,7.50
2022-10-22T03:12:10.687Z,10.03
2022-10-22T03:14:37.227Z,6.50
2022-10-22T03:17:04.060Z,5.43
2022-10-22T03:19:30.636Z,8.63
2022-10-22T03:21:59.053Z,6.80
2022-10-22T03:24:27.360Z,7.10
2022-10-22T03:26:54.083Z,6.93
2022-10-22T03:29:22.075Z,8.27
2022-10-22T03:31:48.639Z,8.73
2022-10-22T03:34:15.316Z,6.93
2022-10-22T03:36:42.056Z,7.07
2022-10-22T03:39:09.104Z,10.43
2022-10-22T03:41:35.701Z,5.67
2022-10-22T03:44:03.449Z,7.20
2022-10-22T03:46:30.010Z,8.47
2022-10-22T03:48:56.750Z,6.27
2022-10-22T03:51:23.475Z,8.53
2022-10-22T03:53:50.030Z,5.27
2022-10-22T03:56:16.557Z,5.03
2022-10-22T03:58:43.174Z,7.43
2022-10-22T04:01:11.204Z,5.37
2022-10-22T04:03:38.080Z,9.13
2022-10-22T04:06:08.995Z,12.80
2022-10-22T04:08:35.743Z,6.97
2022-10-22T04:11:02.569Z,7.90
2022-10-22T04:13:29.141Z,6.33
2022-10-22T04:15:55.658Z,6.27
2022-10-22T04:18:23.152Z,6.03
2022-10-22T04:20:51.591Z,9.37
2022-10-22T04:23:18.187Z,4.00
2022-10-22T04:25:44.742Z,4.73
2022-10-22T04:28:11.276Z,7.57
2022-10-22T04:30:37.857Z,10.90
2022-10-22T04:33:04.387Z,6.57
2022-10-22T04:35:30.937Z,9.80
2022-10-22T04:37:57.502Z,4.50
2022-10-22T04:40:24.132Z,7.50
2022-10-22T04:42:50.675Z,5.10
2022-10-22T04:45:17.479Z,4.70
2022-10-22T04:47:44.238Z,7.37
2022-10-22T04:50:10.943Z,4.57
2022-10-22T04:52:37.727Z,7.30
2022-10-22T04:55:04.531Z,5.63
2022-10-22T04:57:31.322Z,5.47
2022-10-22T04:59:57.885Z,7.77
2022-10-22T05:02:24.451Z,4.37
2022-10-22T05:04:50.985Z,6.10
2022-10-22T05:07:17.570Z,5.07
2022-10-22T05:09:44.168Z,5.77
2022-10-22T05:12:10.768Z,5.10
2022-10-22T05:14:40.296Z,6.97
2022-10-22T05:17:09.226Z,6.73
2022-10-22T05:19:35.760Z,3.37
2022-10-22T05:22:03.364Z,4.70
2022-10-22T05:24:30.964Z,6.03
2022-10-22T05:26:58.602Z,4.63
2022-10-22T05:29:25.512Z,4.30
2022-10-22T05:31:53.294Z,3.40
2022-10-22T05:34:20.151Z,4.53
2022-10-22T05:36:46.736Z,5.77
2022-10-22T05:39:13.390Z,5.93
2022-10-22T05:41:40.126Z,5.80
2022-10-22T05:44:06.735Z,7.87
2022-10-22T05:46:36.067Z,7.43
2022-10-22T05:49:04.845Z,3.57
2022-10-22T05:51:32.864Z,6.53
2022-10-22T05:54:00.903Z,5.47
2022-10-22T05:56:28.853Z,4.70
2022-10-22T05:58:56.421Z,3.90
2022-10-22T06:01:24.633Z,5.47
2022-10-22T06:03:55.161Z,3.13
2022-10-22T06:06:21.777Z,5.57
2022-10-22T06:08:49.189Z,4.20
2022-10-22T06:11:17.901Z,5.97
2022-10-22T06:13:45.347Z,7.13
2022-10-22T06:16:11.961Z,3.67
2022-10-22T06:18:38.612Z,6.30
2022-10-22T06:21:06.354Z,7.50
2022-10-22T06:23:33.039Z,7.23
2022-10-22T06:26:00.157Z,2.00
2022-10-22T06:28:28.067Z,4.37
2022-10-22T06:30:54.887Z,6.50
2022-10-22T06:33:21.471Z,6.87
2022-10-22T06:35:48.712Z,5.17
2022-10-22T06:38:15.468Z,4.20
2022-10-22T06:40:45.119Z,6.30
2022-10-22T06:43:12.384Z,4.40
2022-10-22T06:45:39.104Z,5.53
2022-10-22T06:48:06.217Z,7.17
2022-10-22T06:50:36.104Z,8.20
2022-10-22T06:53:02.678Z,6.50
2022-10-22T06:55:29.291Z,6.77
2022-10-22T06:57:56.019Z,8.80
2022-10-22T07:00:22.690Z,4.83
2022-10-22T07:02:58.963Z,5.97
2022-10-22T07:05:26.448Z,7.93
2022-10-22T07:07:53.018Z,4.43
2022-10-22T07:10:20.417Z,6.37
2022-10-22T07:12:47.177Z,7.20
2022-10-22T07:15:14.229Z,5.23
2022-10-22T07:20:27.377Z,8.30
2022-10-22T07:22:53.994Z,6.57
2022-10-22T07:25:20.603Z,5.13
2022-10-22T07:27:47.222Z,6.20
2022-10-22T07:30:14.298Z,6.20
2022-10-22T07:32:41.051Z,4.23
2022-10-22T07:35:07.807Z,6.37
2022-10-22T07:37:34.448Z,3.47
2022-10-22T07:40:03.806Z,5.40
2022-10-22T07:42:30.888Z,6.33
2022-10-22T07:44:57.424Z,3.73
2022-10-22T07:47:24.020Z,3.63
2022-10-22T07:49:50.610Z,4.90
2022-10-22T07:52:17.276Z,6.93
2022-10-22T07:54:43.863Z,6.13
2022-10-22T07:57:10.447Z,8.17
2022-10-22T07:59:37.018Z,5.03
2022-10-22T08:02:03.572Z,5.50
2022-10-22T08:04:30.157Z,4.67
2022-10-22T08:06:56.692Z,5.07
2022-10-22T08:09:23.490Z,3.63
2022-10-22T08:11:50.437Z,4.97
2022-10-22T08:14:17.051Z,6.77
2022-10-22T08:16:43.698Z,3.27
2022-10-22T08:19:10.287Z,4.10
2022-10-22T08:21:36.865Z,9.30
2022-10-22T08:24:03.531Z,5.00
2022-10-22T08:26:30.148Z,3.20
2022-10-22T08:28:56.714Z,8.50
2022-10-22T08:31:23.299Z,4.63
2022-10-22T08:33:50.269Z,4.43
2022-10-22T08:36:16.868Z,9.90
2022-10-22T08:38:43.726Z,3.27
2022-10-22T08:41:13.140Z,5.13
2022-10-22T08:43:59.271Z,6.53
2022-10-22T08:46:39.065Z,3.30
2022-10-22T08:51:36.970Z,5.57
2022-10-22T08:54:22.399Z,7.30
2022-10-22T08:57:00.818Z,3.33
2022-10-22T08:59:30.222Z,2.37
2022-10-22T09:01:56.814Z,8.67
2022-10-22T09:04:28.773Z,4.83
2022-10-22T09:06:57.566Z,4.83
2022-10-22T09:09:27.114Z,7.30
2022-10-22T09:11:55.337Z,5.10
2022-10-22T09:14:22.981Z,6.90
2022-10-22T09:16:55.710Z,5.60
2022-10-22T09:19:40.545Z,4.93
2022-10-22T09:22:19.481Z,4.90
2022-10-22T09:24:47.697Z,5.23
2022-10-22T09:27:16.140Z,4.57
2022-10-22T09:29:43.645Z,3.23
2022-10-22T09:32:10.277Z,4.93
2022-10-22T09:34:36.897Z,5.43
2022-10-22T09:37:05.058Z,3.97
2022-10-22T09:39:42.181Z,3.53
2022-10-22T09:42:15.410Z,5.47
2022-10-22T09:44:56.410Z,6.17
2022-10-22T09:47:42.874Z,4.57
2022-10-22T09:50:18.488Z,7.07
2022-10-22T09:52:45.105Z,4.80
2022-10-22T09:55:16.509Z,5.17
2022-10-22T09:57:43.865Z,3.60
2022-10-22T10:00:12.608Z,8.17
2022-10-22T10:02:40.953Z,4.47
2022-10-22T10:05:08.332Z,4.00
2022-10-22T10:07:36.025Z,4.93
2022-10-22T10:10:03.129Z,4.77
2022-10-22T10:12:43.683Z,3.23
2022-10-22T10:15:10.280Z,3.03
2022-10-22T10:17:44.621Z,4.77
2022-10-22T10:20:17.304Z,6.30
2022-10-22T10:22:51.523Z,3.63
2022-10-22T10:25:35.516Z,5.13
2022-10-22T10:28:24.203Z,3.23
2022-10-22T10:30:59.248Z,3.73
2022-10-22T10:33:44.661Z,3.77
2022-10-22T10:36:28.859Z,4.60
2022-10-22T10:38:58.210Z,4.67
2022-10-22T10:41:24.754Z,4.20
2022-10-22T10:43:57.503Z,2.87
2022-10-22T10:46:37.155Z,3.07
2022-10-22T10:49:11.183Z,3.73
2022-10-22T10:51:37.792Z,3.80
2022-10-22T10:54:23.248Z,4.23
2022-10-22T10:56:57.620Z,4.30
2022-10-22T10:59:43.137Z,3.57
2022-10-22T11:02:28.292Z,3.27
2022-10-22T11:04:57.748Z,4.73
2022-10-22T11:07:44.738Z,2.63
2022-10-22T11:10:11.342Z,3.47
2022-10-22T11:12:41.659Z,3.93
2022-10-22T11:15:34.867Z,5.13
2022-10-22T11:18:24.922Z,3.53
2022-10-22T11:21:05.710Z,4.43
2022-10-22T11:23:41.719Z,6.50
2022-10-22T11:26:11.600Z,2.53
2022-10-22T11:28:42.113Z,4.93
2022-10-22T11:31:13.415Z,4.17
2022-10-22T11:33:45.909Z,3.30
2022-10-22T11:36:12.547Z,2.93
2022-10-22T11:38:39.163Z,5.53
2022-10-22T11:41:17.045Z,4.17
2022-10-22T11:44:02.438Z,2.60
2022-10-22T11:46:39.300Z,3.77
2022-10-22T11:49:16.453Z,4.23
2022-10-22T11:51:43.824Z,3.90
2022-10-22T11:54:37.420Z,2.33
2022-10-22T11:57:13.453Z,2.67
2022-10-22T11:59:42.869Z,3.90
2022-10-22T12:02:24.821Z,5.23
2022-10-22T12:04:51.540Z,4.63
2022-10-22T12:07:31.809Z,2.63
2022-10-22T12:09:59.393Z,3.73
2022-10-22T12:12:28.809Z,3.30
2022-10-22T12:14:57.407Z,6.57
2022-10-22T12:17:24.583Z,3.50
2022-10-22T12:20:03.156Z,4.20
2022-10-22T12:22:34.046Z,4.27
2022-10-22T12:25:02.294Z,5.13
2022-10-22T12:27:36.347Z,5.00
2022-10-22T12:30:16.483Z,5.93
2022-10-22T12:32:43.077Z,3.60
2022-10-22T12:35:15.977Z,2.33
2022-10-22T12:37:42.588Z,3.40
2022-10-22T12:40:23.080Z,5.10
2022-10-22T12:42:50.981Z,9.40
2022-10-22T12:45:17.940Z,4.17
2022-10-22T12:47:51.363Z,2.63
2022-10-22T12:50:19.740Z,5.47
2022-10-22T12:52:47.351Z,3.30
2022-10-22T12:55:18.187Z,3.93
2022-10-22T12:57:46.287Z,0.97
2022-10-22T13:00:21.854Z,3.33
2022-10-22T13:02:48.475Z,3.17
2022-10-22T13:05:20.322Z,4.23
2022-10-22T13:07:48.445Z,3.40
2022-10-22T13:10:20.588Z,1.33
2022-10-22T13:12:51.417Z,2.17
2022-10-22T13:15:29.258Z,2.00
2022-10-22T13:18:14.200Z,3.90
2022-10-22T13:20:50.326Z,1.73
2022-10-22T13:23:21.383Z,3.03
2022-10-22T13:25:58.736Z,1.20
2022-10-22T13:28:26.553Z,1.30
2022-10-22T13:30:55.306Z,3.00
2022-10-22T13:33:22.867Z,4.33
2022-10-22T13:35:49.609Z,3.30
2022-10-22T13:38:18.609Z,1.50
2022-10-22T13:40:45.543Z,2.13
2022-10-22T13:43:12.131Z,2.43
2022-10-22T13:45:38.914Z,2.30
2022-10-22T13:48:05.743Z,2.03
2022-10-22T13:50:32.335Z,3.73
2022-10-22T13:52:59.984Z,2.23
2022-10-22T13:55:29.030Z,2.20
2022-10-22T13:58:00.652Z,2.03
2022-10-22T14:00:29.038Z,1.27
2022-10-22T14:02:57.654Z,3.27
2022-10-22T14:05:24.251Z,3.50
2022-10-22T14:07:51.280Z,2.70
2022-10-22T14:10:19.660Z,2.20
2022-10-22T14:12:50.875Z,4.23
2022-10-22T14:15:24.390Z,3.80
2022-10-22T14:17:56.349Z,2.67
2022-10-22T14:20:25.180Z,3.53
2022-10-22T14:22:51.853Z,3.40
2022-10-22T14:25:20.172Z,3.93
2022-10-22T14:27:47.233Z,4.37
2022-10-22T14:30:18.315Z,1.67
2022-10-22T14:32:45.138Z,3.67
2022-10-22T14:35:13.246Z,4.57
2022-10-22T14:37:40.324Z,3.50
2022-10-22T14:40:07.396Z,1.70
2022-10-22T14:42:38.993Z,5.77
2022-10-22T14:45:06.301Z,4.87
2022-10-22T14:47:32.936Z,10.27
2022-10-22T14:49:59.694Z,9.60
2022-10-22T14:52:26.348Z,6.00
2022-10-22T14:54:53.881Z,5.90
2022-10-22T14:57:20.586Z,9.67
2022-10-22T14:59:47.130Z,2.77
2022-10-22T15:02:13.706Z,2.20
2022-10-22T15:04:40.292Z,6.10
2022-10-22T15:07:06.971Z,3.97
2022-10-22T15:09:33.613Z,6.27
2022-10-22T15:12:00.187Z,6.03
2022-10-22T15:14:26.879Z,2.57
2022-10-22T15:16:53.472Z,2.57
2022-10-22T15:19:20.046Z,2.17
2022-10-22T15:21:46.619Z,4.20
2022-10-22T15:24:13.211Z,2.63
2022-10-22T15:26:39.859Z,7.17
2022-10-22T15:29:06.659Z,4.40
2022-10-22T15:31:49.806Z,2.30
2022-10-22T15:34:20.139Z,3.10
2022-10-22T15:36:46.793Z,3.77
2022-10-22T15:39:14.360Z,3.43
2022-10-22T15:41:41.216Z,4.03
2022-10-22T15:44:08.758Z,5.33
2022-10-22T15:46:35.658Z,8.23
2022-10-22T15:49:02.356Z,4.10
2022-10-22T15:51:28.928Z,7.10
2022-10-22T15:53:57.670Z,10.83
2022-10-22T15:56:24.876Z,3.77
2022-10-22T15:59:00.812Z,8.17
2022-10-22T16:01:27.522Z,5.53
2022-10-22T16:04:00.175Z,5.67
2022-10-22T16:06:27.622Z,6.80
2022-10-22T16:08:54.989Z,7.43
2022-10-22T16:11:21.575Z,5.93
2022-10-22T16:13:48.204Z,6.43
2022-10-22T16:16:14.753Z,2.63
2022-10-22T16:18:41.450Z,4.50
2022-10-22T16:21:11.553Z,5.33
2022-10-22T16:23:38.107Z,3.00
2022-10-22T16:26:04.656Z,3.70
2022-10-22T16:28:31.338Z,5.90
2022-10-22T16:31:01.403Z,7.77
2022-10-22T16:33:28.130Z,6.60
2022-10-22T16:35:54.860Z,7.17
2022-10-22T16:38:21.445Z,6.67
2022-10-22T16:40:48.025Z,5.53
2022-10-22T16:43:14.636Z,7.77
2022-10-22T16:45:47.212Z,11.87
2022-10-22T16:48:14.240Z,10.17
2022-10-22T16:50:41.036Z,11.17
2022-10-22T16:53:07.751Z,9.87
2022-10-22T16:55:38.316Z,7.90
2022-10-22T16:58:05.390Z,8.13
2022-10-22T17:00:32.250Z,7.03
2022-10-22T17:02:59.226Z,6.27
2022-10-22T17:05:25.761Z,6.57
2022-10-22T17:07:53.227Z,6.47
2022-10-22T17:10:20.168Z,9.73
2022-10-22T17:12:47.712Z,7.43
2022-10-22T17:15:14.801Z,8.23
2022-10-22T17:17:41.413Z,11.93
2022-10-22T17:20:08.295Z,8.30
2022-10-22T17:22:35.019Z,10.87
2022-10-22T17:25:22.143Z,8.07
2022-10-22T17:27:48.859Z,8.60
2022-10-22T17:30:16.591Z,10.97
2022-10-22T17:32:43.201Z,5.63
2022-10-22T17:35:09.943Z,10.00
2022-10-22T17:37:36.701Z,11.47
2022-10-22T17:40:04.149Z,6.97
2022-10-22T17:42:31.016Z,9.70
2022-10-22T17:44:57.660Z,10.63
2022-10-22T17:47:24.231Z,7.93
2022-10-22T17:49:50.908Z,9.20
2022-10-22T17:52:17.497Z,8.50
2022-10-22T17:54:44.055Z,11.43
2022-10-22T17:57:12.175Z,8.47
2022-10-22T17:59:38.718Z,9.07
2022-10-22T18:02:05.357Z,10.27
2022-10-22T18:04:32.572Z,12.20
2022-10-22T18:06:59.472Z,8.27
2022-10-22T18:09:26.061Z,15.67
2022-10-22T18:11:54.021Z,8.90
2022-10-22T18:14:21.895Z,10.10
2022-10-22T18:16:49.012Z,6.57
2022-10-22T18:19:17.097Z,9.73
2022-10-22T18:21:43.727Z,8.37
2022-10-22T18:24:10.684Z,9.00
2022-10-22T18:26:37.251Z,10.23
2022-10-22T18:29:03.826Z,8.67
2022-10-22T18:31:30.530Z,6.97
2022-10-22T18:33:57.683Z,8.77
2022-10-22T18:36:25.539Z,9.70
2022-10-22T18:38:53.685Z,7.43
2022-10-22T18:41:20.752Z,9.17
2022-10-22T18:43:54.704Z,12.00
2022-10-22T18:46:21.944Z,12.67
2022-10-22T18:48:48.554Z,9.97
2022-10-22T18:51:15.425Z,8.20
2022-10-22T18:53:44.188Z,12.40
2022-10-22T18:56:13.180Z,13.00
2022-10-22T18:58:40.426Z,9.17
2022-10-22T19:01:12.532Z,8.43
2022-10-22T19:03:39.908Z,7.57
2022-10-22T19:06:06.916Z,10.27
2022-10-22T19:08:34.749Z,12.80
2022-10-22T19:11:01.807Z,9.93
2022-10-22T19:13:28.571Z,7.53
2022-10-22T19:16:01.411Z,9.07
2022-10-22T19:18:28.004Z,8.80
2022-10-22T19:20:58.162Z,9.80
2022-10-22T19:23:25.086Z,11.13
2022-10-22T19:26:00.938Z,10.30
2022-10-22T19:28:27.508Z,10.73
2022-10-22T19:30:54.631Z,10.17
2022-10-22T19:33:21.168Z,10.13
2022-10-22T19:35:47.765Z,14.10
2022-10-22T19:38:14.376Z,10.00
2022-10-22T19:40:41.711Z,12.87
2022-10-22T19:43:08.458Z,12.63
2022-10-22T19:45:35.492Z,13.20
2022-10-22T19:48:02.059Z,10.93
2022-10-22T19:50:28.975Z,8.07
2022-10-22T19:52:55.511Z,15.20
2022-10-22T19:55:22.229Z,15.00
2022-10-22T19:57:48.776Z,8.87
2022-10-22T20:00:15.480Z,9.80
2022-10-22T20:02:42.047Z,9.17
2022-10-22T20:05:08.833Z,13.03
2022-10-22T20:07:35.434Z,9.33
2022-10-22T20:10:02.092Z,10.33
2022-10-22T20:12:28.632Z,14.13
2022-10-22T20:14:55.276Z,10.93
2022-10-22T20:17:21.881Z,9.30
2022-10-22T20:19:48.414Z,10.57
2022-10-22T20:22:17.872Z,17.40
2022-10-22T20:24:45.522Z,11.77
2022-10-22T20:27:13.256Z,11.97
2022-10-22T20:29:39.839Z,8.60
2022-10-22T20:32:08.754Z,10.47
2022-10-22T20:34:35.781Z,11.60
2022-10-22T20:37:03.365Z,11.03
2022-10-22T20:39:29.910Z,10.07
2022-10-22T20:41:56.487Z,11.70
2022-10-22T20:44:23.157Z,13.13
2022-10-22T20:46:50.999Z,14.40
2022-10-22T20:49:17.858Z,10.77
2022-10-22T20:51:44.546Z,12.07
2022-10-22T20:54:11.256Z,13.67
2022-10-22T20:56:39.121Z,14.00
2022-10-22T20:59:08.032Z,14.07
2022-10-22T21:01:39.070Z,11.43
2022-10-22T21:04:06.088Z,14.43
2022-10-22T21:06:33.089Z,13.80
2022-10-22T21:08:59.804Z,10.37
2022-10-22T21:11:26.448Z,11.27
2022-10-22T21:13:53.033Z,8.33
2022-10-22T21:16:19.737Z,8.70
2022-10-22T21:18:46.878Z,10.00
2022-10-22T21:21:13.520Z,10.00
2022-10-22T21:23:40.298Z,13.27
2022-10-22T21:26:06.985Z,11.87
2022-10-22T21:28:35.687Z,13.97
2022-10-22T21:31:06.527Z,10.07
2022-10-22T21:33:35.759Z,10.37
2022-10-22T21:36:02.471Z,11.57
2022-10-22T21:38:29.063Z,11.30
2022-10-22T21:40:55.594Z,10.43
2022-10-22T21:43:22.153Z,6.73
2022-10-22T21:45:48.795Z,7.10
2022-10-22T21:48:15.689Z,9.17
2022-10-22T21:50:42.982Z,8.93
2022-10-22T21:53:10.608Z,8.83
2022-10-22T21:55:38.267Z,11.17
2022-10-22T21:58:04.844Z,11.53
2022-10-22T22:00:31.452Z,6.93
2022-10-22T22:02:58.125Z,8.20
2022-10-22T22:05:24.694Z,12.57
2022-10-22T22:07:51.271Z,10.17
2022-10-22T22:10:17.860Z,10.70
2022-10-22T22:12:44.862Z,11.40
2022-10-22T22:15:11.613Z,9.20
2022-10-22T22:17:38.147Z,7.13
2022-10-22T22:20:05.945Z,8.53
2022-10-22T22:22:32.556Z,9.70
2022-10-22T22:24:59.091Z,12.87
2022-10-22T22:27:25.658Z,10.43
2022-10-22T22:29:53.612Z,8.13
2022-10-22T22:32:20.179Z,9.00
2022-10-22T22:34:46.756Z,8.00
2022-10-22T22:37:13.337Z,11.40
2022-10-22T22:39:39.952Z,10.70
2022-10-22T22:42:06.553Z,8.73
2022-10-22T22:44:33.107Z,7.83
2022-10-22T22:46:59.644Z,9.30
2022-10-22T22:49:26.268Z,11.17
2022-10-22T22:51:52.796Z,10.60
2022-10-22T22:54:19.442Z,12.40
2022-10-22T22:56:45.968Z,12.60
2022-10-22T22:59:12.620Z,10.00
2022-10-22T23:01:39.386Z,12.03
2022-10-22T23:04:11.082Z,11.83
2022-10-22T23:06:37.843Z,8.50
2022-10-22T23:09:05.473Z,9.80
2022-10-22T23:11:32.184Z,10.03
2022-10-22T23:14:00.255Z,10.60
2022-10-22T23:16:27.880Z,10.20
2022-10-22T23:18:54.704Z,10.17
2022-10-22T23:21:23.952Z,11.17
2022-10-22T23:23:53.610Z,9.13
2022-10-22T23:26:27.875Z,10.13
2022-10-22T23:28:54.703Z,11.50
2022-10-22T23:31:24.326Z,10.33
2022-10-22T23:33:50.944Z,11.33
2022-10-22T23:36:17.512Z,7.53
2022-10-22T23:38:44.088Z,10.50
2022-10-22T23:41:10.707Z,7.00
2022-10-22T23:43:37.865Z,7.63
2022-10-22T23:46:08.283Z,8.60
2022-10-22T23:48:35.207Z,9.00
2022-10-22T23:51:08.549Z,9.07
2022-10-22T23:53:35.159Z,11.37
2022-10-22T23:56:12.646Z,8.57
2022-10-22T23:58:39.357Z,8.77
